Time;durP1;ratioP1;P1;durP2;ratioP2;P2;SDS_P1;SDS_P2;PMS_P1;PMS_P2;Temp;Humidity;BMP_temperature;BMP_pressure;BME280_temperature;BME280_humidity;BME280_pressure;Samples;Min_cycle;Max_cycle;Signal;HPM_P1;HPM_P2
2021/12/20 00:01:23;;;;;;;;;20.00;16.00;;;;;;;;5075935;28;11441;-81
2021/12/20 00:03:50;;;;;;;;;22.75;17.00;;;;;;;;5076785;28;11475;-81
2021/12/20 00:06:18;;;;;;;;;19.25;19.25;;;;;;;;5070678;28;11457;-79
2021/12/20 00:08:46;;;;;;;;;19.75;18.50;;;;;;;;5084161;28;12053;-78
2021/12/20 00:11:14;;;;;;;;;20.00;17.25;;;;;;;;5084787;28;11619;-80
2021/12/20 00:13:41;;;;;;;;;21.50;17.00;;;;;;;;5080282;28;11644;-76
2021/12/20 00:16:09;;;;;;;;;21.25;20.25;;;;;;;;5082300;28;11465;-78
2021/12/20 00:18:36;;;;;;;;;14.75;13.00;;;;;;;;5080057;28;11496;-83
2021/12/20 00:21:04;;;;;;;;;17.75;17.75;;;;;;;;5055624;28;12313;-82
2021/12/20 00:23:31;;;;;;;;;22.00;19.25;;;;;;;;5077241;28;11644;-80
2021/12/20 00:26:00;;;;;;;;;20.25;19.50;;;;;;;;5074248;28;11515;-80
2021/12/20 00:28:27;;;;;;;;;22.25;22.00;;;;;;;;5077183;28;12184;-80
2021/12/20 00:30:55;;;;;;;;;27.00;27.00;;;;;;;;5077916;28;11460;-76
2021/12/20 00:33:22;;;;;;;;;27.25;24.75;;;;;;;;5078594;28;11595;-82
2021/12/20 00:35:50;;;;;;;;;26.00;26.00;;;;;;;;5084498;28;11489;-82
2021/12/20 00:41:04;;;;;;;;;22.25;21.25;;;;;;;;5074526;28;11482;-82
2021/12/20 00:43:31;;;;;;;;;33.50;27.00;;;;;;;;5077365;28;11487;-82
2021/12/20 00:45:59;;;;;;;;;29.25;26.25;;;;;;;;5059924;28;11484;-83
2021/12/20 00:48:26;;;;;;;;;35.75;29.50;;;;;;;;5062778;28;11486;-79
2021/12/20 00:50:53;;;;;;;;;32.00;28.00;;;;;;;;5086146;28;12192;-77
2021/12/20 00:53:22;;;;;;;;;28.75;27.00;;;;;;;;5081269;28;12258;-80
2021/12/20 00:55:49;;;;;;;;;30.00;30.00;;;;;;;;5071993;28;11531;-79
2021/12/20 00:58:18;;;;;;;;;25.75;24.75;;;;;;;;5077810;28;11462;-80
2021/12/20 01:00:48;;;;;;;;;26.25;26.25;;;;;;;;5067302;28;11482;-79
2021/12/20 01:03:17;;;;;;;;;30.75;29.00;;;;;;;;5068254;28;11552;-78
2021/12/20 01:05:44;;;;;;;;;18.25;14.25;;;;;;;;5079295;28;11504;-79
2021/12/20 01:08:12;;;;;;;;;32.75;29.75;;;;;;;;5076480;28;11473;-80
2021/12/20 01:10:43;;;;;;;;;39.00;34.50;;;;;;;;5073983;28;11546;-80
2021/12/20 01:13:13;;;;;;;;;34.50;29.50;;;;;;;;5071405;28;11502;-82
2021/12/20 01:15:47;;;;;;;;;31.00;31.00;;;;;;;;5053695;28;11574;-83
2021/12/20 01:18:15;;;;;;;;;38.00;29.75;;;;;;;;5077101;28;11508;-82
2021/12/20 01:20:43;;;;;;;;;32.50;30.25;;;;;;;;5080363;28;12263;-85
2021/12/20 01:23:11;;;;;;;;;44.50;36.75;;;;;;;;5072942;28;11479;-84
2021/12/20 01:25:40;;;;;;;;;41.25;34.00;;;;;;;;5080144;28;11492;-84
2021/12/20 01:28:08;;;;;;;;;33.75;32.00;;;;;;;;5076513;28;11590;-84
2021/12/20 01:30:36;;;;;;;;;33.00;29.50;;;;;;;;5071504;28;11550;-84
2021/12/20 01:33:08;;;;;;;;;39.00;33.25;;;;;;;;5072296;28;11460;-82
2021/12/20 01:35:35;;;;;;;;;45.50;40.50;;;;;;;;5074903;28;11497;-81
2021/12/20 01:38:03;;;;;;;;;41.25;38.25;;;;;;;;5083259;28;11549;-80
2021/12/20 01:40:30;;;;;;;;;32.50;32.50;;;;;;;;5070918;28;11658;-81
2021/12/20 01:42:59;;;;;;;;;46.50;41.50;;;;;;;;5082020;28;11606;-83
2021/12/20 01:45:28;;;;;;;;;49.00;41.75;;;;;;;;5048242;28;11553;-81
2021/12/20 01:48:04;;;;;;;;;51.25;41.75;;;;;;;;5071748;28;11527;-80
2021/12/20 01:50:49;;;;;;;;;37.75;35.75;;;;;;;;5080949;28;11560;-84
2021/12/20 01:53:19;;;;;;;;;51.75;42.50;;;;;;;;5075702;28;11674;-83
2021/12/20 01:55:47;;;;;;;;;44.00;38.75;;;;;;;;5072736;28;11570;-81
2021/12/20 01:58:14;;;;;;;;;48.50;40.25;;;;;;;;5081400;28;11489;-81
2021/12/20 02:03:27;;;;;;;;;42.25;34.50;;;;;;;;5081839;28;11513;-82
2021/12/20 02:05:58;;;;;;;;;42.25;38.50;;;;;;;;5073482;28;11621;-82
2021/12/20 02:08:28;;;;;;;;;46.50;41.75;;;;;;;;5077411;28;11671;-78
2021/12/20 02:10:59;;;;;;;;;44.25;39.00;;;;;;;;5074844;28;11556;-83
2021/12/20 02:13:29;;;;;;;;;35.00;34.00;;;;;;;;5072418;28;11642;-84
2021/12/20 02:15:58;;;;;;;;;48.50;37.00;;;;;;;;5077881;28;11579;-83
2021/12/20 02:18:25;;;;;;;;;44.00;38.25;;;;;;;;5060380;28;11732;-83
2021/12/20 02:20:54;;;;;;;;;60.00;41.50;;;;;;;;5064690;28;11569;-81
2021/12/20 02:23:22;;;;;;;;;35.00;32.75;;;;;;;;5074465;28;11557;-80
2021/12/20 02:25:49;;;;;;;;;40.50;39.25;;;;;;;;5081577;28;11548;-80
2021/12/20 02:28:19;;;;;;;;;36.75;25.50;;;;;;;;5078126;28;11668;-84
2021/12/20 02:36:52;;;;;;;;;34.00;31.75;;;;;;;;5075322;28;11462;-81
2021/12/20 02:39:11;;;;;;;;;40.00;32.50;;;;;;;;5075190;28;11519;-83
2021/12/20 02:41:38;;;;;;;;;37.00;30.25;;;;;;;;5068904;28;11557;-83
2021/12/20 02:44:11;;;;;;;;;42.75;38.25;;;;;;;;5080607;28;11678;-84
2021/12/20 02:46:50;;;;;;;;;41.75;37.50;;;;;;;;5085208;28;11502;-82
2021/12/20 02:49:21;;;;;;;;;39.25;37.75;;;;;;;;5075217;28;11545;-83
2021/12/20 02:51:52;;;;;;;;;29.50;22.25;;;;;;;;5082547;28;11684;-82
2021/12/20 02:54:21;;;;;;;;;39.75;33.00;;;;;;;;5077035;28;11555;-83
2021/12/20 02:56:49;;;;;;;;;32.75;32.75;;;;;;;;5064498;28;11544;-82
2021/12/20 02:59:17;;;;;;;;;39.00;31.50;;;;;;;;5071701;28;11544;-82
2021/12/20 03:01:58;;;;;;;;;34.75;29.75;;;;;;;;5080743;28;11636;-83
2021/12/20 03:04:26;;;;;;;;;36.00;35.00;;;;;;;;5071544;28;11607;-84
2021/12/20 03:06:57;;;;;;;;;26.50;24.50;;;;;;;;5071131;28;11499;-82
2021/12/20 03:09:30;;;;;;;;;19.75;18.00;;;;;;;;5076589;28;11539;-84
2021/12/20 03:11:59;;;;;;;;;25.50;24.75;;;;;;;;5063728;28;11543;-83
2021/12/20 03:14:30;;;;;;;;;27.75;23.50;;;;;;;;5073661;28;11558;-83
2021/12/20 03:16:58;;;;;;;;;34.75;30.00;;;;;;;;5074016;28;11516;-82
2021/12/20 03:19:25;;;;;;;;;33.25;25.00;;;;;;;;5078215;28;11588;-80
2021/12/20 03:21:53;;;;;;;;;38.50;32.50;;;;;;;;5076651;28;11498;-82
2021/12/20 03:24:23;;;;;;;;;35.50;30.75;;;;;;;;5075429;28;11507;-77
2021/12/20 03:26:50;;;;;;;;;28.00;25.00;;;;;;;;5085026;28;12420;-83
2021/12/20 03:29:18;;;;;;;;;26.50;26.25;;;;;;;;5082968;28;11534;-81
2021/12/20 03:31:46;;;;;;;;;24.50;23.50;;;;;;;;5079601;28;11504;-80
2021/12/20 03:34:13;;;;;;;;;27.25;26.00;;;;;;;;5081704;28;11633;-84
2021/12/20 03:36:41;;;;;;;;;21.50;19.75;;;;;;;;5091586;28;11624;-82
2021/12/20 03:39:10;;;;;;;;;25.25;20.50;;;;;;;;5083322;28;11577;-82
2021/12/20 03:41:39;;;;;;;;;15.25;13.00;;;;;;;;5075957;28;11518;-82
2021/12/20 03:44:08;;;;;;;;;16.50;16.50;;;;;;;;5071712;28;11495;-79
2021/12/20 03:46:36;;;;;;;;;18.50;16.25;;;;;;;;5077834;28;11494;-77
2021/12/20 03:49:03;;;;;;;;;19.50;17.00;;;;;;;;5077743;28;11494;-77
2021/12/20 03:51:31;;;;;;;;;22.50;18.00;;;;;;;;5075338;28;12276;-78
2021/12/20 03:53:58;;;;;;;;;19.50;14.25;;;;;;;;5086688;28;11634;-79
2021/12/20 03:56:25;;;;;;;;;21.50;19.00;;;;;;;;5096596;28;12410;-80
2021/12/20 03:58:54;;;;;;;;;8.50;5.00;;;;;;;;5065354;28;11596;-78
2021/12/20 04:01:22;;;;;;;;;17.50;17.50;;;;;;;;5082154;28;12308;-80
2021/12/20 04:03:50;;;;;;;;;25.25;21.50;;;;;;;;5070609;28;11525;-79
2021/12/20 04:06:18;;;;;;;;;21.00;19.50;;;;;;;;5081158;28;12363;-80
2021/12/20 04:08:46;;;;;;;;;21.50;21.50;;;;;;;;5075615;28;11625;-75
2021/12/20 04:11:13;;;;;;;;;22.75;21.25;;;;;;;;5080832;28;11661;-77
2021/12/20 04:13:40;;;;;;;;;18.00;15.75;;;;;;;;5077425;28;11466;-76
2021/12/20 04:16:09;;;;;;;;;27.50;26.00;;;;;;;;5082485;28;11493;-81
2021/12/20 04:18:37;;;;;;;;;29.00;26.50;;;;;;;;5082273;28;11519;-78
2021/12/20 04:21:05;;;;;;;;;26.75;22.75;;;;;;;;5065079;28;11549;-82
2021/12/20 04:23:32;;;;;;;;;19.25;17.50;;;;;;;;5079950;28;11492;-77
2021/12/20 04:25:59;;;;;;;;;26.00;20.50;;;;;;;;5070762;28;11505;-80
2021/12/20 04:28:27;;;;;;;;;16.00;16.00;;;;;;;;5080962;28;11612;-82
2021/12/20 04:30:54;;;;;;;;;20.50;18.00;;;;;;;;5076376;28;11533;-80
2021/12/20 04:33:23;;;;;;;;;17.75;15.75;;;;;;;;5070858;28;11516;-78
2021/12/20 04:35:51;;;;;;;;;16.00;14.75;;;;;;;;5076475;28;11499;-78
2021/12/20 04:38:19;;;;;;;;;22.75;18.25;;;;;;;;5076529;28;11474;-77
2021/12/20 04:40:46;;;;;;;;;14.25;13.50;;;;;;;;5053447;28;11527;-82
2021/12/20 04:43:13;;;;;;;;;14.00;11.75;;;;;;;;5079905;28;11481;-79
2021/12/20 04:45:41;;;;;;;;;16.75;14.00;;;;;;;;5079682;28;11443;-82
2021/12/20 04:48:09;;;;;;;;;9.50;9.50;;;;;;;;5085562;28;11484;-85
2021/12/20 04:50:38;;;;;;;;;13.75;12.00;;;;;;;;5052780;28;11417;-85
2021/12/20 04:53:06;;;;;;;;;13.25;13.00;;;;;;;;5081019;28;11436;-83
2021/12/20 04:55:34;;;;;;;;;13.00;13.00;;;;;;;;5076050;28;11470;-80
2021/12/20 04:58:05;;;;;;;;;13.75;13.75;;;;;;;;5080129;28;11550;-82
2021/12/20 05:00:34;;;;;;;;;12.00;12.00;;;;;;;;5076902;28;11422;-82
2021/12/20 05:03:02;;;;;;;;;12.50;10.00;;;;;;;;5081759;28;11454;-83
2021/12/20 05:05:30;;;;;;;;;10.00;10.00;;;;;;;;5067674;28;11453;-81
2021/12/20 05:07:58;;;;;;;;;12.75;10.50;;;;;;;;5077017;28;11571;-79
2021/12/20 05:10:30;;;;;;;;;9.00;9.00;;;;;;;;5080008;28;11535;-77
2021/12/20 05:12:59;;;;;;;;;13.25;11.00;;;;;;;;5083924;28;11582;-76
2021/12/20 05:15:27;;;;;;;;;8.25;7.75;;;;;;;;5071726;28;11583;-77
2021/12/20 05:17:54;;;;;;;;;6.00;6.00;;;;;;;;5057540;28;11445;-81
2021/12/20 05:20:22;;;;;;;;;13.75;8.75;;;;;;;;5058856;28;11485;-79
2021/12/20 05:22:49;;;;;;;;;17.00;12.25;;;;;;;;5081731;28;11540;-77
2021/12/20 05:25:18;;;;;;;;;11.50;9.75;;;;;;;;5081063;28;11491;-78
2021/12/20 05:27:46;;;;;;;;;10.75;7.50;;;;;;;;5082537;28;11470;-77
2021/12/20 05:30:14;;;;;;;;;10.25;9.25;;;;;;;;5076855;28;11468;-78
2021/12/20 05:32:42;;;;;;;;;8.75;8.00;;;;;;;;5075556;28;12234;-78
2021/12/20 05:35:10;;;;;;;;;12.25;9.75;;;;;;;;5082292;28;11451;-80
2021/12/20 05:37:37;;;;;;;;;9.00;8.25;;;;;;;;5063945;28;12141;-81
2021/12/20 05:40:06;;;;;;;;;8.00;5.25;;;;;;;;5077584;28;11432;-80
2021/12/20 05:42:35;;;;;;;;;8.00;8.00;;;;;;;;5080378;28;11436;-81
2021/12/20 05:45:03;;;;;;;;;16.50;12.50;;;;;;;;5073693;28;11401;-81
2021/12/20 05:47:30;;;;;;;;;9.25;7.00;;;;;;;;5083900;28;11477;-81
2021/12/20 05:49:57;;;;;;;;;5.25;4.50;;;;;;;;5078794;28;11566;-78
2021/12/20 05:52:25;;;;;;;;;4.00;3.50;;;;;;;;5075158;28;11420;-77
2021/12/20 05:54:52;;;;;;;;;5.50;4.25;;;;;;;;5067784;28;11495;-80
2021/12/20 05:57:19;;;;;;;;;10.00;5.50;;;;;;;;5079432;28;11443;-85
2021/12/20 05:59:48;;;;;;;;;6.50;4.00;;;;;;;;5066702;28;11500;-83
2021/12/20 06:02:15;;;;;;;;;4.00;4.00;;;;;;;;5075923;28;11400;-83
2021/12/20 06:04:43;;;;;;;;;2.00;2.00;;;;;;;;5079293;28;12303;-82
2021/12/20 06:07:10;;;;;;;;;2.50;2.50;;;;;;;;5076383;28;11594;-81
2021/12/20 06:09:37;;;;;;;;;6.50;4.00;;;;;;;;5072737;28;11486;-82
2021/12/20 06:12:06;;;;;;;;;3.00;3.00;;;;;;;;5079619;28;12641;-79
2021/12/20 06:14:34;;;;;;;;;5.00;5.00;;;;;;;;5077194;28;11461;-82
2021/12/20 06:17:03;;;;;;;;;1.75;1.75;;;;;;;;5080298;28;11578;-79
2021/12/20 06:19:30;;;;;;;;;1.00;1.00;;;;;;;;5065462;28;11546;-82
2021/12/20 06:21:57;;;;;;;;;4.00;1.00;;;;;;;;5077357;28;11479;-82
2021/12/20 06:24:25;;;;;;;;;1.00;1.00;;;;;;;;5078656;28;11406;-82
2021/12/20 06:26:53;;;;;;;;;2.00;2.00;;;;;;;;5081066;28;11422;-80
2021/12/20 06:29:20;;;;;;;;;0.50;0.50;;;;;;;;5079740;28;11410;-76
2021/12/20 06:31:48;;;;;;;;;1.75;1.00;;;;;;;;5068037;28;12161;-81
2021/12/20 06:34:17;;;;;;;;;1.00;1.00;;;;;;;;5071256;28;11463;-79
2021/12/20 06:36:44;;;;;;;;;1.00;0.25;;;;;;;;5088842;28;11564;-80
2021/12/20 06:39:11;;;;;;;;;0.00;0.00;;;;;;;;5083482;28;11426;-82
2021/12/20 06:41:39;;;;;;;;;2.00;1.00;;;;;;;;5071837;28;11208;-79
2021/12/20 06:44:08;;;;;;;;;1.00;1.00;;;;;;;;5083116;28;11460;-79
2021/12/20 06:46:37;;;;;;;;;1.00;1.00;;;;;;;;5091209;28;11431;-80
2021/12/20 06:49:08;;;;;;;;;1.00;1.00;;;;;;;;5083029;28;11434;-80
2021/12/20 06:51:39;;;;;;;;;3.25;1.00;;;;;;;;5084364;28;11418;-79
2021/12/20 06:54:07;;;;;;;;;1.00;1.00;;;;;;;;5082967;28;11418;-80
2021/12/20 06:56:34;;;;;;;;;7.25;5.25;;;;;;;;5061064;28;11433;-82
2021/12/20 06:59:01;;;;;;;;;4.25;1.00;;;;;;;;5078270;28;11472;-81
2021/12/20 07:01:29;;;;;;;;;4.50;2.00;;;;;;;;5085228;28;11381;-79
2021/12/20 07:03:56;;;;;;;;;6.00;6.00;;;;;;;;5076047;28;11474;-79
2021/12/20 07:06:24;;;;;;;;;7.25;7.25;;;;;;;;5073443;28;11483;-80
2021/12/20 07:08:53;;;;;;;;;6.00;6.00;;;;;;;;5083623;28;11408;-82
2021/12/20 07:11:20;;;;;;;;;5.50;4.50;;;;;;;;5059624;28;11472;-79
2021/12/20 07:13:48;;;;;;;;;5.00;5.00;;;;;;;;5076442;28;11417;-81
2021/12/20 07:16:16;;;;;;;;;0.00;0.00;;;;;;;;5055824;28;11452;-82
2021/12/20 07:18:44;;;;;;;;;0.75;0.75;;;;;;;;5082830;28;11442;-82
2021/12/20 07:21:12;;;;;;;;;2.00;2.00;;;;;;;;5081797;28;11482;-81
2021/12/20 07:23:39;;;;;;;;;0.00;0.00;;;;;;;;5082196;28;11587;-83
2021/12/20 07:26:12;;;;;;;;;1.00;1.00;;;;;;;;5063843;28;11422;-85
2021/12/20 07:28:41;;;;;;;;;0.00;0.00;;;;;;;;5082713;28;12206;-83
2021/12/20 07:31:09;;;;;;;;;0.00;0.00;;;;;;;;5078781;28;11154;-81
2021/12/20 07:33:36;;;;;;;;;0.00;0.00;;;;;;;;5060614;28;11516;-84
2021/12/20 07:36:04;;;;;;;;;3.25;1.00;;;;;;;;5051823;28;11404;-76
2021/12/20 07:38:31;;;;;;;;;1.00;1.00;;;;;;;;5071997;28;11529;-74
2021/12/20 07:40:58;;;;;;;;;1.75;1.00;;;;;;;;5073235;28;11508;-71
2021/12/20 07:43:27;;;;;;;;;4.25;4.25;;;;;;;;5075682;28;11496;-74
2021/12/20 07:45:55;;;;;;;;;0.00;0.00;;;;;;;;5074950;28;11459;-72
2021/12/20 07:48:23;;;;;;;;;0.75;0.75;;;;;;;;5079656;28;11222;-71
2021/12/20 07:50:51;;;;;;;;;0.00;0.00;;;;;;;;5075258;28;11030;-74
2021/12/20 07:53:18;;;;;;;;;5.75;5.75;;;;;;;;5076432;28;11291;-72
2021/12/20 07:55:46;;;;;;;;;0.00;0.00;;;;;;;;5072524;28;11428;-73
2021/12/20 07:58:13;;;;;;;;;4.00;2.00;;;;;;;;5074994;28;11114;-73
2021/12/20 08:00:43;;;;;;;;;0.75;0.75;;;;;;;;5080623;28;11362;-73
2021/12/20 08:03:10;;;;;;;;;0.00;0.00;;;;;;;;5081194;28;11397;-73
2021/12/20 08:05:38;;;;;;;;;0.25;0.00;;;;;;;;5067860;28;11602;-73
2021/12/20 08:08:05;;;;;;;;;1.00;1.00;;;;;;;;5052577;28;11131;-71
2021/12/20 08:10:33;;;;;;;;;2.25;1.25;;;;;;;;5078066;28;11419;-72
2021/12/20 08:13:00;;;;;;;;;2.00;2.00;;;;;;;;5080555;28;11394;-71
2021/12/20 08:15:28;;;;;;;;;4.75;2.00;;;;;;;;5066720;28;11441;-72
2021/12/20 08:17:57;;;;;;;;;5.50;5.50;;;;;;;;5076886;28;11435;-72
2021/12/20 08:20:25;;;;;;;;;1.00;1.00;;;;;;;;5073296;28;11471;-73
2021/12/20 08:22:52;;;;;;;;;2.00;2.00;;;;;;;;5078090;28;11222;-77
2021/12/20 08:25:20;;;;;;;;;5.75;5.75;;;;;;;;5076915;28;11458;-73
2021/12/20 08:27:48;;;;;;;;;1.50;1.50;;;;;;;;5084075;28;11557;-73
2021/12/20 08:30:16;;;;;;;;;2.75;2.75;;;;;;;;5073515;28;11438;-73
2021/12/20 08:32:44;;;;;;;;;1.75;1.75;;;;;;;;5078130;28;11452;-72
2021/12/20 08:35:15;;;;;;;;;1.00;1.00;;;;;;;;5075087;28;11442;-72
2021/12/20 08:37:42;;;;;;;;;13.25;13.25;;;;;;;;5084654;28;11545;-75
2021/12/20 08:40:12;;;;;;;;;7.75;7.75;;;;;;;;5077104;28;11563;-73
2021/12/20 08:42:40;;;;;;;;;7.25;7.25;;;;;;;;5077517;28;11610;-73
2021/12/20 08:45:09;;;;;;;;;10.00;8.50;;;;;;;;5082550;28;11515;-73
2021/12/20 08:47:36;;;;;;;;;7.00;5.25;;;;;;;;5080922;28;12177;-73
2021/12/20 08:50:08;;;;;;;;;8.50;5.75;;;;;;;;5085816;28;12168;-73
2021/12/20 08:52:37;;;;;;;;;8.50;8.50;;;;;;;;5072159;28;11460;-73
2021/12/20 08:55:05;;;;;;;;;2.25;2.25;;;;;;;;5074169;28;11447;-73
2021/12/20 08:57:33;;;;;;;;;5.00;5.00;;;;;;;;5073993;28;11474;-74
2021/12/20 09:00:00;;;;;;;;;5.50;4.25;;;;;;;;5079545;28;11438;-75
2021/12/20 09:02:27;;;;;;;;;2.25;2.25;;;;;;;;5077543;28;11385;-74
2021/12/20 09:04:55;;;;;;;;;8.25;4.50;;;;;;;;5072503;28;11438;-73
2021/12/20 09:07:22;;;;;;;;;8.00;4.00;;;;;;;;5081884;28;11599;-73
2021/12/20 09:09:52;;;;;;;;;1.00;1.00;;;;;;;;5080913;28;11469;-75
2021/12/20 09:12:20;;;;;;;;;2.00;2.00;;;;;;;;5079534;28;12598;-75
2021/12/20 09:14:48;;;;;;;;;5.00;2.00;;;;;;;;5078225;28;11459;-75
2021/12/20 09:17:17;;;;;;;;;2.00;2.00;;;;;;;;5078944;28;11441;-76
2021/12/20 09:19:45;;;;;;;;;2.00;2.00;;;;;;;;5078290;28;11615;-76
2021/12/20 09:22:12;;;;;;;;;4.00;4.00;;;;;;;;5076873;28;11235;-75
2021/12/20 09:24:40;;;;;;;;;38.75;38.50;;;;;;;;5059308;28;11433;-75
2021/12/20 09:27:12;;;;;;;;;6.25;5.00;;;;;;;;5076568;28;11548;-75
2021/12/20 09:29:40;;;;;;;;;11.50;9.25;;;;;;;;5081977;28;12563;-75
2021/12/20 09:32:08;;;;;;;;;6.75;6.25;;;;;;;;5076522;28;12369;-75
2021/12/20 09:34:35;;;;;;;;;13.50;12.00;;;;;;;;5079355;28;11451;-75
2021/12/20 09:37:06;;;;;;;;;12.50;10.00;;;;;;;;5077207;28;12464;-75
2021/12/20 09:39:36;;;;;;;;;14.00;11.75;;;;;;;;5076869;28;11409;-75
2021/12/20 09:42:05;;;;;;;;;10.00;8.50;;;;;;;;5082838;28;11862;-75
2021/12/20 09:44:34;;;;;;;;;7.00;7.00;;;;;;;;5079351;28;11481;-74
2021/12/20 09:47:03;;;;;;;;;4.00;4.00;;;;;;;;5079662;28;11450;-74
2021/12/20 09:49:32;;;;;;;;;6.50;5.00;;;;;;;;5076954;28;11589;-73
2021/12/20 09:51:59;;;;;;;;;6.75;6.75;;;;;;;;5076956;28;11437;-74
2021/12/20 09:54:28;;;;;;;;;18.25;17.75;;;;;;;;5079477;28;11408;-71
2021/12/20 09:56:57;;;;;;;;;15.75;14.00;;;;;;;;5072535;28;11449;-71
2021/12/20 09:59:26;;;;;;;;;13.75;13.25;;;;;;;;5076628;28;11627;-72
2021/12/20 10:01:56;;;;;;;;;21.25;15.75;;;;;;;;5077563;28;11412;-72
2021/12/20 10:04:23;;;;;;;;;7.50;5.50;;;;;;;;5081489;28;11495;-72
2021/12/20 10:06:55;;;;;;;;;5.50;3.25;;;;;;;;5076138;28;11440;-71
2021/12/20 10:09:27;;;;;;;;;15.00;10.00;;;;;;;;5069395;28;11467;-72
2021/12/20 10:12:10;;;;;;;;;8.25;8.25;;;;;;;;5076742;28;11428;-72
2021/12/20 10:14:56;;;;;;;;;11.25;11.25;;;;;;;;5073517;28;12136;-71
2021/12/20 10:17:26;;;;;;;;;3.25;3.25;;;;;;;;5072011;28;11464;-72
2021/12/20 10:19:53;;;;;;;;;7.50;7.50;;;;;;;;5057896;28;11168;-72
2021/12/20 10:22:25;;;;;;;;;14.00;12.75;;;;;;;;5074075;28;11431;-72
2021/12/20 10:24:53;;;;;;;;;10.25;7.25;;;;;;;;5076998;28;12285;-71
2021/12/20 10:27:33;;;;;;;;;8.75;8.75;;;;;;;;5083541;28;11476;-72
2021/12/20 10:30:03;;;;;;;;;21.25;21.25;;;;;;;;5069947;28;11475;-72
2021/12/20 10:32:44;;;;;;;;;11.00;11.00;;;;;;;;5070928;28;11441;-72
2021/12/20 10:35:40;;;;;;;;;23.75;20.25;;;;;;;;5079127;28;11512;-72
2021/12/20 10:38:26;;;;;;;;;9.00;5.00;;;;;;;;5078246;28;12205;-72
2021/12/20 10:40:56;;;;;;;;;4.00;3.50;;;;;;;;5077305;28;11573;-72
2021/12/20 10:43:28;;;;;;;;;19.75;15.00;;;;;;;;5080828;28;11362;-71
2021/12/20 10:45:57;;;;;;;;;7.00;7.00;;;;;;;;5075840;28;11588;-72
2021/12/20 10:48:33;;;;;;;;;6.00;6.00;;;;;;;;5061406;28;11442;-72
2021/12/20 10:51:00;;;;;;;;;12.25;9.00;;;;;;;;5076333;28;11442;-72
2021/12/20 10:53:28;;;;;;;;;5.25;5.25;;;;;;;;5080275;28;11489;-72
2021/12/20 10:55:58;;;;;;;;;6.00;6.00;;;;;;;;5071848;28;11302;-73
2021/12/20 10:58:33;;;;;;;;;10.75;6.50;;;;;;;;5082822;28;11431;-72
2021/12/20 11:01:22;;;;;;;;;14.00;12.00;;;;;;;;5081329;28;12523;-73
2021/12/20 11:04:03;;;;;;;;;8.00;8.00;;;;;;;;5082723;28;11431;-73
2021/12/20 11:09:18;;;;;;;;;8.75;7.00;;;;;;;;5076950;28;11389;-72
2021/12/20 11:11:49;;;;;;;;;6.00;6.00;;;;;;;;5079680;28;12616;-72
2021/12/20 11:14:18;;;;;;;;;7.00;5.00;;;;;;;;5077723;28;11794;-72
2021/12/20 11:16:49;;;;;;;;;7.00;6.00;;;;;;;;5083112;28;11127;-72
2021/12/20 11:19:39;;;;;;;;;6.25;6.25;;;;;;;;5079356;28;11049;-73
2021/12/20 11:22:09;;;;;;;;;6.00;5.00;;;;;;;;5067676;28;11056;-73
2021/12/20 11:24:40;;;;;;;;;6.75;6.00;;;;;;;;5071985;28;11069;-72
2021/12/20 11:27:13;;;;;;;;;6.25;6.25;;;;;;;;5082192;28;11059;-72
2021/12/20 11:29:41;;;;;;;;;5.50;5.50;;;;;;;;5057915;28;11162;-73
2021/12/20 11:32:10;;;;;;;;;6.75;6.75;;;;;;;;5071129;28;11036;-73
2021/12/20 11:34:41;;;;;;;;;3.00;3.00;;;;;;;;5077707;28;11440;-73
2021/12/20 11:37:09;;;;;;;;;6.25;6.25;;;;;;;;5083029;28;11062;-73
2021/12/20 11:39:37;;;;;;;;;7.00;7.00;;;;;;;;5077570;28;11160;-73
2021/12/20 11:42:07;;;;;;;;;8.00;8.00;;;;;;;;5044896;28;11127;-73
2021/12/20 11:44:35;;;;;;;;;6.25;5.75;;;;;;;;5065673;28;11077;-74
2021/12/20 11:47:10;;;;;;;;;8.00;7.00;;;;;;;;5077954;28;11000;-74
2021/12/20 11:49:40;;;;;;;;;9.00;6.00;;;;;;;;5070229;28;11069;-72
2021/12/20 11:52:14;;;;;;;;;9.00;6.00;;;;;;;;5078907;28;11671;-71
2021/12/20 11:54:48;;;;;;;;;5.50;5.50;;;;;;;;5083142;28;10901;-75
2021/12/20 11:57:37;;;;;;;;;10.25;7.50;;;;;;;;5072040;28;11025;-74
2021/12/20 12:00:20;;;;;;;;;6.00;3.50;;;;;;;;5085040;28;11062;-77
2021/12/20 12:02:49;;;;;;;;;14.00;11.50;;;;;;;;5071568;28;10736;-75
2021/12/20 12:05:30;;;;;;;;;15.75;10.00;;;;;;;;5084314;28;11133;-76
2021/12/20 12:08:38;;;;;;;;;5.00;3.00;;;;;;;;5077961;28;11136;-77
2021/12/20 12:11:31;;;;;;;;;8.75;7.00;;;;;;;;5073187;28;10847;-75
2021/12/20 12:17:09;;;;;;;;;5.00;5.00;;;;;;;;5057173;28;10902;-74
2021/12/20 12:19:39;;;;;;;;;6.50;5.50;;;;;;;;5080079;28;10955;-72
2021/12/20 12:22:36;;;;;;;;;10.25;8.50;;;;;;;;5059725;28;12070;-77
2021/12/20 12:25:07;;;;;;;;;7.00;7.00;;;;;;;;5083464;28;11006;-74
2021/12/20 12:27:36;;;;;;;;;5.25;5.25;;;;;;;;5084612;28;10973;-73
2021/12/20 12:30:32;;;;;;;;;5.50;5.50;;;;;;;;5059017;28;11005;-73
2021/12/20 12:33:19;;;;;;;;;9.25;7.50;;;;;;;;5049430;28;10881;-78
2021/12/20 12:35:52;;;;;;;;;6.75;6.75;;;;;;;;5051786;28;11010;-75
2021/12/20 12:38:22;;;;;;;;;7.50;6.75;;;;;;;;5053058;28;11083;-76
2021/12/20 12:40:51;;;;;;;;;6.25;6.25;;;;;;;;5056231;28;10983;-75
2021/12/20 12:43:26;;;;;;;;;11.00;9.00;;;;;;;;5051334;28;10933;-74
2021/12/20 12:45:55;;;;;;;;;6.00;6.00;;;;;;;;5063812;28;10870;-74
2021/12/20 12:48:36;;;;;;;;;11.50;10.00;;;;;;;;5049549;28;10880;-74
2021/12/20 12:51:40;;;;;;;;;11.00;9.75;;;;;;;;5056565;28;11758;-75
2021/12/20 12:54:09;;;;;;;;;6.25;6.25;;;;;;;;5061876;28;10907;-76
2021/12/20 12:56:38;;;;;;;;;1.00;0.50;;;;;;;;5065294;28;11664;-75
2021/12/20 12:59:24;;;;;;;;;9.00;6.50;;;;;;;;5063760;28;11396;-75
2021/12/20 13:01:53;;;;;;;;;5.25;5.00;;;;;;;;5053696;28;10791;-76
2021/12/20 13:04:20;;;;;;;;;7.00;7.00;;;;;;;;5064971;28;10935;-73
2021/12/20 13:06:48;;;;;;;;;5.00;5.00;;;;;;;;5066023;28;10893;-74
2021/12/20 13:09:16;;;;;;;;;5.25;5.25;;;;;;;;5060921;28;10757;-74
2021/12/20 13:11:44;;;;;;;;;10.75;9.00;;;;;;;;5052409;28;10891;-75
2021/12/20 13:14:15;;;;;;;;;5.00;5.00;;;;;;;;5062894;28;10933;-74
2021/12/20 13:16:53;;;;;;;;;5.00;5.00;;;;;;;;5046006;28;10855;-74
2021/12/20 13:19:29;;;;;;;;;0.00;0.00;;;;;;;;5058258;28;11556;-73
2021/12/20 13:22:00;;;;;;;;;15.00;11.00;;;;;;;;5047901;28;10809;-72
2021/12/20 13:24:29;;;;;;;;;11.75;11.75;;;;;;;;5053050;28;11048;-73
2021/12/20 13:27:04;;;;;;;;;10.00;7.50;;;;;;;;5065837;28;11118;-75
2021/12/20 13:29:31;;;;;;;;;26.75;24.50;;;;;;;;5064180;28;10932;-75
2021/12/20 13:32:06;;;;;;;;;16.00;11.75;;;;;;;;5064857;28;11470;-75
2021/12/20 13:34:33;;;;;;;;;6.25;6.25;;;;;;;;5063993;28;11197;-75
2021/12/20 13:37:06;;;;;;;;;8.00;8.00;;;;;;;;5057212;28;11039;-74
2021/12/20 13:39:34;;;;;;;;;19.00;19.00;;;;;;;;5062506;28;10947;-75
2021/12/20 13:42:06;;;;;;;;;12.50;12.50;;;;;;;;5064777;28;11512;-75
2021/12/20 13:44:33;;;;;;;;;17.00;16.75;;;;;;;;5055764;28;11204;-75
2021/12/20 13:47:03;;;;;;;;;18.50;15.75;;;;;;;;5056497;28;11195;-75
2021/12/20 13:49:31;;;;;;;;;33.75;27.25;;;;;;;;5065194;28;11113;-74
2021/12/20 13:52:01;;;;;;;;;20.00;20.00;;;;;;;;5078961;28;11563;-75
2021/12/20 13:54:31;;;;;;;;;25.50;22.25;;;;;;;;5063853;28;11339;-75
2021/12/20 13:57:03;;;;;;;;;5.75;5.75;;;;;;;;5052436;28;11525;-76
2021/12/20 13:59:34;;;;;;;;;11.00;9.50;;;;;;;;5048103;28;10819;-75
2021/12/20 14:02:04;;;;;;;;;13.25;11.00;;;;;;;;5051666;28;10799;-76
2021/12/20 14:04:36;;;;;;;;;6.50;5.50;;;;;;;;5061761;28;10987;-75
2021/12/20 14:07:05;;;;;;;;;10.50;8.25;;;;;;;;5063216;28;10904;-74
2021/12/20 14:09:56;;;;;;;;;6.75;6.75;;;;;;;;5062291;28;10849;-74
2021/12/20 14:12:24;;;;;;;;;14.00;10.25;;;;;;;;5063431;28;10811;-75
2021/12/20 14:15:00;;;;;;;;;7.00;7.00;;;;;;;;5052049;28;10949;-74
2021/12/20 14:17:28;;;;;;;;;9.00;7.00;;;;;;;;5050994;28;10754;-75
2021/12/20 14:20:04;;;;;;;;;6.25;3.50;;;;;;;;5058748;28;11713;-76
2021/12/20 14:22:33;;;;;;;;;6.50;6.50;;;;;;;;5063381;28;11010;-75
2021/12/20 14:25:08;;;;;;;;;11.25;7.50;;;;;;;;5055480;28;11104;-76
2021/12/20 14:27:38;;;;;;;;;9.75;9.75;;;;;;;;5064061;28;11849;-75
2021/12/20 14:30:21;;;;;;;;;8.50;7.00;;;;;;;;5057766;28;11203;-74
2021/12/20 14:32:50;;;;;;;;;5.75;5.75;;;;;;;;5053457;28;11801;-74
2021/12/20 14:35:34;;;;;;;;;15.50;12.50;;;;;;;;5062468;28;10899;-71
2021/12/20 14:38:05;;;;;;;;;15.50;14.25;;;;;;;;5055870;28;11049;-75
2021/12/20 14:40:47;;;;;;;;;9.00;9.00;;;;;;;;5064043;28;11158;-74
2021/12/20 14:43:17;;;;;;;;;17.75;15.25;;;;;;;;5063513;28;12364;-75
2021/12/20 14:45:46;;;;;;;;;9.25;9.25;;;;;;;;5062498;28;11052;-74
2021/12/20 14:48:33;;;;;;;;;6.25;6.25;;;;;;;;5045948;28;11032;-75
2021/12/20 14:51:15;;;;;;;;;8.50;8.50;;;;;;;;5058353;28;10990;-74
2021/12/20 14:53:42;;;;;;;;;10.50;9.00;;;;;;;;5059010;28;11256;-76
2021/12/20 14:56:11;;;;;;;;;10.25;10.25;;;;;;;;5056752;28;10986;-76
2021/12/20 14:58:42;;;;;;;;;6.00;5.00;;;;;;;;5047394;28;11012;-76
2021/12/20 15:01:09;;;;;;;;;7.25;6.00;;;;;;;;5049370;28;10840;-74
2021/12/20 15:03:41;;;;;;;;;13.50;11.25;;;;;;;;5063729;28;11034;-74
2021/12/20 15:06:10;;;;;;;;;12.75;9.25;;;;;;;;5057227;28;11209;-73